createdAt,value
2019-05-01T00:00:31.850Z,10.04
2019-05-01T00:01:31.678Z,10.03
2019-05-01T00:02:31.731Z,10.01
2019-05-01T00:03:31.632Z,10.14
2019-05-01T00:04:31.640Z,10.04
2019-05-01T00:05:31.649Z,9.96
2019-05-01T00:06:31.559Z,10.01
2019-05-01T00:07:31.572Z,10.10
2019-05-01T00:08:31.499Z,10.00
2019-05-01T00:09:31.585Z,9.99
2019-05-01T00:10:31.448Z,10.17
2019-05-01T00:11:31.496Z,10.14
2019-05-01T00:12:31.398Z,10.03
2019-05-01T00:13:31.399Z,10.01
2019-05-01T00:14:31.353Z,10.14
2019-05-01T00:15:31.412Z,10.03
2019-05-01T00:16:31.288Z,10.04
2019-05-01T00:17:31.270Z,9.97
2019-05-01T00:18:31.332Z,10.06
2019-05-01T00:19:31.206Z,10.04
2019-05-01T00:20:31.247Z,10.00
2019-05-01T00:21:31.248Z,10.03
2019-05-01T00:22:31.140Z,10.06
2019-05-01T00:23:31.170Z,10.03
2019-05-01T00:24:31.078Z,10.01
2019-05-01T00:25:31.083Z,10.00
2019-05-01T00:26:31.040Z,9.94
2019-05-01T00:27:30.999Z,10.04
2019-05-01T00:28:30.989Z,10.04
2019-05-01T00:29:30.938Z,9.91
2019-05-01T00:30:31.007Z,10.03
2019-05-01T00:31:30.899Z,9.97
2019-05-01T00:32:30.869Z,9.88
2019-05-01T00:33:30.848Z,9.85
2019-05-01T00:34:30.929Z,9.89
2019-05-01T00:35:30.810Z,9.85
2019-05-01T00:36:30.842Z,9.89
2019-05-01T00:37:30.744Z,9.89
2019-05-01T00:38:30.763Z,9.86
2019-05-01T00:39:30.692Z,9.88
2019-05-01T00:40:30.777Z,9.83
2019-05-01T00:41:30.639Z,9.83
2019-05-01T00:42:30.689Z,9.82
2019-05-01T00:43:30.687Z,9.83
2019-05-01T00:44:30.558Z,9.78
2019-05-01T00:45:30.611Z,9.76
2019-05-01T00:46:30.500Z,9.71
2019-05-01T00:47:30.509Z,9.63
2019-05-01T00:48:30.447Z,9.61
2019-05-01T00:49:30.528Z,9.61
2019-05-01T00:50:30.402Z,9.61
2019-05-01T00:51:30.449Z,9.63
2019-05-01T00:52:30.351Z,9.58
2019-05-01T00:53:30.349Z,9.61
2019-05-01T00:54:30.358Z,9.63
2019-05-01T00:55:30.269Z,9.76
2019-05-01T00:56:30.267Z,9.64
2019-05-01T00:57:30.229Z,9.64
2019-05-01T00:58:30.288Z,9.66
2019-05-01T00:59:30.188Z,9.64
2019-05-01T01:00:42.402Z,9.63
2019-05-01T01:01:30.107Z,9.53
2019-05-01T01:02:30.107Z,9.53
2019-05-01T01:03:30.057Z,9.52
2019-05-01T01:04:30.133Z,9.50
2019-05-01T01:05:30.009Z,9.46
2019-05-01T01:06:30.038Z,9.48
2019-05-01T01:07:29.947Z,9.50
2019-05-01T01:08:29.950Z,9.49
2019-05-01T01:09:29.897Z,9.46
2019-05-01T01:10:29.868Z,9.50
2019-05-01T01:11:29.849Z,9.53
2019-05-01T01:12:29.878Z,9.50
2019-05-01T01:13:29.789Z,9.48
2019-05-01T01:14:29.788Z,9.39
2019-05-01T01:15:29.749Z,9.50
2019-05-01T01:16:29.797Z,9.50
2019-05-01T01:17:29.689Z,9.39
2019-05-01T01:18:29.706Z,9.45
2019-05-01T01:19:29.640Z,9.49
2019-05-01T01:20:29.620Z,9.48
2019-05-01T01:21:29.589Z,9.46
2019-05-01T01:22:29.637Z,9.28
2019-05-01T01:23:29.539Z,9.38
2019-05-01T01:24:29.547Z,9.28
2019-05-01T01:25:29.478Z,9.31
2019-05-01T01:26:29.451Z,9.30
2019-05-01T01:27:29.417Z,9.31
2019-05-01T01:28:29.477Z,9.30
2019-05-01T01:29:29.369Z,9.34
2019-05-01T01:30:29.403Z,9.34
2019-05-01T01:31:29.318Z,9.42
2019-05-01T01:32:29.299Z,9.32
2019-05-01T01:33:29.318Z,9.38
2019-05-01T01:34:29.228Z,9.40
2019-05-01T01:35:29.317Z,9.40
2019-05-01T01:36:29.181Z,9.38
2019-05-01T01:37:29.160Z,9.38
2019-05-01T01:38:29.150Z,9.30
2019-05-01T01:39:29.147Z,9.32
2019-05-01T01:40:29.068Z,9.30
2019-05-01T01:41:29.157Z,9.32
2019-05-01T01:42:29.022Z,9.32
2019-05-01T01:43:29.003Z,9.28
2019-05-01T01:44:29.088Z,9.28
2019-05-01T01:45:28.945Z,9.18
2019-05-01T01:46:28.989Z,9.15
2019-05-01T01:47:28.902Z,9.20
2019-05-01T01:48:28.858Z,9.18
2019-05-01T01:49:28.829Z,9.20
2019-05-01T01:50:28.915Z,9.21
2019-05-01T01:51:28.788Z,9.25
2019-05-01T01:52:28.843Z,9.16
2019-05-01T01:53:28.725Z,9.15
2019-05-01T01:54:28.709Z,9.18
2019-05-01T01:55:28.750Z,9.15
2019-05-01T01:56:28.647Z,9.20
2019-05-01T01:57:28.656Z,9.06
2019-05-01T01:58:28.597Z,9.09
2019-05-01T01:59:28.566Z,9.13
2019-05-01T02:00:28.538Z,9.18
2019-05-01T02:01:28.597Z,9.10
2019-05-01T02:02:28.487Z,9.04
2019-05-01T02:03:28.496Z,9.09
2019-05-01T02:04:28.437Z,9.10
2019-05-01T02:05:28.518Z,9.09
2019-05-01T02:06:28.378Z,9.12
2019-05-01T02:07:28.420Z,9.12
2019-05-01T02:08:28.337Z,9.10
2019-05-01T02:09:28.349Z,9.15
2019-05-01T02:10:42.180Z,9.18
2019-05-01T02:11:28.238Z,9.05
2019-05-01T02:12:28.259Z,9.05
2019-05-01T02:13:28.188Z,8.99
2019-05-01T02:14:28.273Z,9.01
2019-05-01T02:15:28.136Z,8.97
2019-05-01T02:16:28.181Z,8.94
2019-05-01T02:17:28.086Z,8.91
2019-05-01T02:18:28.097Z,8.83
2019-05-01T02:19:28.027Z,8.84
2019-05-01T02:20:28.106Z,8.86
2019-05-01T02:21:28.010Z,8.94
2019-05-01T02:22:27.945Z,8.87
2019-05-01T02:23:28.017Z,8.76
2019-05-01T02:24:27.903Z,8.68
2019-05-01T02:25:27.948Z,8.73
2019-05-01T02:26:27.835Z,8.71
2019-05-01T02:27:27.845Z,8.63
2019-05-01T02:28:27.791Z,8.58
2019-05-01T02:29:27.857Z,8.71
2019-05-01T02:30:27.739Z,8.55
2019-05-01T02:31:29.274Z,8.65
2019-05-01T02:32:27.679Z,8.71
2019-05-01T02:33:27.688Z,8.71
2019-05-01T02:34:27.629Z,8.63
2019-05-01T02:35:30.326Z,8.69
2019-05-01T02:36:27.577Z,8.65
2019-05-01T02:37:27.550Z,8.68
2019-05-01T02:38:27.517Z,8.62
2019-05-01T02:39:27.516Z,8.54
2019-05-01T02:40:27.467Z,8.53
2019-05-01T02:41:27.538Z,8.50
2019-05-01T02:42:27.414Z,8.51
2019-05-01T02:43:27.379Z,8.60
2019-05-01T02:44:27.460Z,8.50
2019-05-01T02:45:27.330Z,8.55
2019-05-01T02:46:27.377Z,8.50
2019-05-01T02:47:27.278Z,8.50
2019-05-01T02:48:27.248Z,8.40
2019-05-01T02:49:27.229Z,8.40
2019-05-01T02:50:27.297Z,8.40
2019-05-01T02:51:27.175Z,8.36
2019-05-01T02:52:27.211Z,8.36
2019-05-01T02:53:27.109Z,8.33
2019-05-01T02:54:27.123Z,8.32
2019-05-01T02:55:27.057Z,8.29
2019-05-01T02:56:27.131Z,8.22
2019-05-01T02:57:26.997Z,8.22
2019-05-01T02:58:27.038Z,8.25
2019-05-01T02:59:27.050Z,8.15
2019-05-01T03:00:26.919Z,8.14
2019-05-01T03:01:26.962Z,8.18
2019-05-01T03:02:26.961Z,8.18
2019-05-01T03:03:26.878Z,8.22
2019-05-01T03:04:26.810Z,8.26
2019-05-01T03:05:26.885Z,8.26
2019-05-01T03:06:26.760Z,8.37
2019-05-01T03:07:26.799Z,8.44
2019-05-01T03:08:26.709Z,8.36
2019-05-01T03:09:26.717Z,8.42
2019-05-01T03:10:26.647Z,8.39
2019-05-01T03:11:26.727Z,8.40
2019-05-01T03:12:26.590Z,8.42
2019-05-01T03:13:26.635Z,8.37
2019-05-01T03:14:26.537Z,8.50
2019-05-01T03:15:26.509Z,8.42
2019-05-01T03:16:26.506Z,8.42
2019-05-01T03:17:26.559Z,8.40
2019-05-01T03:18:26.431Z,8.48
2019-05-01T03:19:26.476Z,8.48
2019-05-01T03:20:26.377Z,8.51
2019-05-01T03:21:26.355Z,8.51
2019-05-01T03:22:26.398Z,8.47
2019-05-01T03:23:26.296Z,8.42
2019-05-01T03:24:26.310Z,8.42
2019-05-01T03:25:26.248Z,8.50
2019-05-01T03:26:26.209Z,8.51
2019-05-01T03:27:26.181Z,8.39
2019-05-01T03:28:26.228Z,8.39
2019-05-01T03:29:26.126Z,8.47
2019-05-01T03:30:26.144Z,8.47
2019-05-01T03:31:26.120Z,8.42
2019-05-01T03:32:26.037Z,8.47
2019-05-01T03:33:26.059Z,8.42
2019-05-01T03:34:25.999Z,8.37
2019-05-01T03:35:25.978Z,8.48
2019-05-01T03:36:25.941Z,8.42
2019-05-01T03:37:25.908Z,8.47
2019-05-01T03:38:25.887Z,8.44
2019-05-01T03:39:25.902Z,8.39
2019-05-01T03:40:25.819Z,8.42
2019-05-01T03:41:25.827Z,8.51
2019-05-01T03:42:25.767Z,8.44
2019-05-01T03:43:25.749Z,8.51
2019-05-01T03:44:25.729Z,8.48
2019-05-01T03:45:25.689Z,8.48
2019-05-01T03:46:25.746Z,8.44
2019-05-01T03:47:25.629Z,8.42
2019-05-01T03:48:25.598Z,8.39
2019-05-01T03:49:25.674Z,8.45
2019-05-01T03:50:25.548Z,8.42
2019-05-01T03:51:25.577Z,8.35
2019-05-01T03:52:25.501Z,8.45
2019-05-01T03:53:25.500Z,8.40
2019-05-01T03:54:25.440Z,8.45
2019-05-01T03:55:25.496Z,8.45
2019-05-01T03:56:25.385Z,8.51
2019-05-01T03:57:25.507Z,8.42
2019-05-01T03:58:25.338Z,8.44
2019-05-01T03:59:25.399Z,8.40
2019-05-01T04:00:25.268Z,8.53
2019-05-01T04:01:25.338Z,8.55
2019-05-01T04:02:33.470Z,8.54
2019-05-01T04:03:25.188Z,8.55
2019-05-01T04:04:25.156Z,8.62
2019-05-01T04:05:25.135Z,8.68
2019-05-01T04:06:25.178Z,8.69
2019-05-01T04:07:25.079Z,8.72
2019-05-01T04:08:25.077Z,8.73
2019-05-01T04:09:25.028Z,8.78
2019-05-01T04:10:24.996Z,8.79
2019-05-01T04:11:25.004Z,8.81
2019-05-01T04:12:24.936Z,8.69
2019-05-01T04:13:25.022Z,8.81
2019-05-01T04:14:24.886Z,8.73
2019-05-01T04:15:24.862Z,8.78
2019-05-01T04:16:24.838Z,8.68
2019-05-01T04:17:24.841Z,8.66
2019-05-01T04:18:24.776Z,8.62
2019-05-01T04:19:24.874Z,8.66
2019-05-01T04:20:24.730Z,8.68
2019-05-01T04:21:24.876Z,8.72
2019-05-01T04:22:24.807Z,8.65
2019-05-01T04:23:24.813Z,8.65
2019-05-01T04:24:24.632Z,8.72
2019-05-01T04:25:24.704Z,8.72
2019-05-01T04:26:24.765Z,8.71
2019-05-01T04:27:24.525Z,8.69
2019-05-01T04:28:24.643Z,8.68
2019-05-01T04:29:24.478Z,8.69
2019-05-01T04:30:24.516Z,8.69
2019-05-01T04:31:24.421Z,8.68
2019-05-01T04:32:24.398Z,8.72
2019-05-01T04:33:24.530Z,8.55
2019-05-01T04:34:24.339Z,8.71
2019-05-01T04:35:24.350Z,8.72
2019-05-01T04:36:24.288Z,8.73
2019-05-01T04:37:24.256Z,8.63
2019-05-01T04:38:24.240Z,8.66
2019-05-01T04:39:24.279Z,8.72
2019-05-01T04:40:24.169Z,8.69
2019-05-01T04:41:24.196Z,8.71
2019-05-01T04:42:24.119Z,8.75
2019-05-01T04:43:24.109Z,8.69
2019-05-01T04:44:24.072Z,8.78
2019-05-01T04:45:24.118Z,8.75
2019-05-01T04:46:24.007Z,8.72
2019-05-01T04:47:24.028Z,8.76
2019-05-01T04:48:24.049Z,8.71
2019-05-01T04:49:23.918Z,8.83
2019-05-01T04:50:23.958Z,8.71
2019-05-01T04:51:23.868Z,8.68
2019-05-01T04:52:23.890Z,8.76
2019-05-01T04:53:23.807Z,8.79
2019-05-01T04:54:23.875Z,8.78
2019-05-01T04:55:23.928Z,8.69
2019-05-01T04:56:23.788Z,8.86
2019-05-01T04:57:23.719Z,8.78
2019-05-01T04:58:23.698Z,8.72
2019-05-01T04:59:23.711Z,8.79
2019-05-01T05:00:23.616Z,8.81
2019-05-01T05:01:23.617Z,8.81
2019-05-01T05:02:23.573Z,8.78
2019-05-01T05:03:23.627Z,8.81
2019-05-01T05:04:23.506Z,8.84
2019-05-01T05:05:23.547Z,8.90
2019-05-01T05:06:23.456Z,8.83
2019-05-01T05:07:23.457Z,8.86
2019-05-01T05:08:23.406Z,8.90
2019-05-01T05:09:23.478Z,8.88
2019-05-01T05:10:23.351Z,8.90
2019-05-01T05:11:23.377Z,8.83
2019-05-01T05:12:23.287Z,8.86
2019-05-01T05:13:23.288Z,8.90
2019-05-01T05:14:23.245Z,8.93
2019-05-01T05:15:23.206Z,8.84
2019-05-01T05:16:23.186Z,8.90
2019-05-01T05:17:23.219Z,8.86
2019-05-01T05:18:23.128Z,8.86
2019-05-01T05:19:23.130Z,8.86
2019-05-01T05:20:23.079Z,8.79
2019-05-01T05:21:23.039Z,8.79
2019-05-01T05:22:23.047Z,8.79
2019-05-01T05:23:22.993Z,8.78
2019-05-01T05:24:23.068Z,8.75
2019-05-01T05:25:22.928Z,8.78
2019-05-01T05:26:22.911Z,8.73
2019-05-01T05:27:22.877Z,8.79
2019-05-01T05:28:22.889Z,8.69
2019-05-01T05:29:22.829Z,8.72
2019-05-01T05:30:22.896Z,8.79
2019-05-01T05:31:22.767Z,8.84
2019-05-01T05:32:22.807Z,8.91
2019-05-01T05:33:22.718Z,8.90
2019-05-01T05:34:22.731Z,8.94
2019-05-01T05:35:22.672Z,8.91
2019-05-01T05:36:22.749Z,8.99
2019-05-01T05:37:22.675Z,9.01
2019-05-01T05:38:22.577Z,8.99
2019-05-01T05:39:22.657Z,8.96
2019-05-01T05:40:22.517Z,8.97
2019-05-01T05:41:22.568Z,8.99
2019-05-01T05:42:22.467Z,9.01
2019-05-01T05:43:22.477Z,9.10
2019-05-01T05:44:22.405Z,9.09
2019-05-01T05:45:22.497Z,9.12
2019-05-01T05:46:22.358Z,9.20
2019-05-01T05:47:25.307Z,9.15
2019-05-01T05:48:22.307Z,9.16
2019-05-01T05:49:22.283Z,9.24
2019-05-01T05:50:22.340Z,9.18
2019-05-01T05:51:22.217Z,9.23
2019-05-01T05:52:22.238Z,9.28
2019-05-01T05:53:22.166Z,9.31
2019-05-01T05:54:22.148Z,9.30
2019-05-01T05:55:22.115Z,9.31
2019-05-01T05:56:22.166Z,9.32
2019-05-01T05:57:22.058Z,9.34
2019-05-01T05:58:22.078Z,9.30
2019-05-01T05:59:22.008Z,9.25
2019-05-01T06:00:22.097Z,9.31
2019-05-01T06:01:21.948Z,9.32
2019-05-01T06:02:22.019Z,9.38
2019-05-01T06:03:31.011Z,9.31
2019-05-01T06:04:22.017Z,9.30
2019-05-01T06:05:21.835Z,9.27
2019-05-01T06:06:21.928Z,9.27
2019-05-01T06:07:21.789Z,9.31
2019-05-01T06:08:21.836Z,9.21
2019-05-01T06:09:21.730Z,9.35
2019-05-01T06:10:23.259Z,9.35
2019-05-01T06:11:21.678Z,9.30
2019-05-01T06:12:21.771Z,9.23
2019-05-01T06:13:22.985Z,9.25
2019-05-01T06:14:21.676Z,9.30
2019-05-01T06:15:21.566Z,9.32
2019-05-01T06:16:21.698Z,9.28
2019-05-01T06:17:23.679Z,9.21
2019-05-01T06:18:21.607Z,9.27
2019-05-01T06:19:21.456Z,9.30
2019-05-01T06:20:25.991Z,9.20
2019-05-01T06:21:21.403Z,9.18
2019-05-01T06:22:21.526Z,9.20
2019-05-01T06:23:22.521Z,9.21
2019-05-01T06:24:21.448Z,9.16
2019-05-01T06:25:22.765Z,9.24
2019-05-01T06:26:21.268Z,9.21
2019-05-01T06:27:21.356Z,9.15
2019-05-01T06:28:24.876Z,9.28
2019-05-01T06:29:21.378Z,9.31
2019-05-01T06:30:21.174Z,9.28
2019-05-01T06:31:22.996Z,9.39
2019-05-01T06:32:21.108Z,9.28
2019-05-01T06:33:21.201Z,9.38
2019-05-01T06:34:23.895Z,9.35
2019-05-01T06:35:21.219Z,9.32
2019-05-01T06:36:23.699Z,9.30
2019-05-01T06:37:25.245Z,9.34
2019-05-01T06:38:21.129Z,9.38
2019-05-01T06:39:20.917Z,9.32
2019-05-01T06:40:22.433Z,9.46
2019-05-01T06:41:20.858Z,9.48
2019-05-01T06:42:20.839Z,9.50
2019-05-01T06:43:25.220Z,9.48
2019-05-01T06:44:20.968Z,9.56
2019-05-01T06:45:20.758Z,9.52
2019-05-01T06:46:22.160Z,9.52
2019-05-01T06:47:20.699Z,9.48
2019-05-01T06:48:20.686Z,9.49
2019-05-01T06:49:24.353Z,9.56
2019-05-01T06:50:20.617Z,9.57
2019-05-01T06:51:20.716Z,9.56
2019-05-01T06:52:20.557Z,9.60
2019-05-01T06:53:20.538Z,9.60
2019-05-01T06:54:20.524Z,9.58
2019-05-01T06:55:22.594Z,9.57
2019-05-01T06:56:20.457Z,9.66
2019-05-01T06:57:20.545Z,9.68
2019-05-01T06:58:21.726Z,9.78
2019-05-01T06:59:20.390Z,9.75
2019-05-01T07:00:20.467Z,9.68
2019-05-01T07:01:23.848Z,9.83
2019-05-01T07:02:20.488Z,9.88
2019-05-01T07:03:20.270Z,9.91
2019-05-01T07:04:20.238Z,9.85
2019-05-01T07:05:20.229Z,9.94
2019-05-01T07:06:20.408Z,9.96
2019-05-01T07:07:25.100Z,9.96
2019-05-01T07:08:24.704Z,10.06
2019-05-01T07:09:27.881Z,10.00
2019-05-01T07:10:30.616Z,9.96
2019-05-01T07:11:20.066Z,10.07
2019-05-01T07:12:24.017Z,9.99
2019-05-01T07:13:19.999Z,10.12
2019-05-01T07:14:20.061Z,10.19
2019-05-01T07:15:21.891Z,10.21
2019-05-01T07:16:19.967Z,10.21
2019-05-01T07:17:19.918Z,10.19
2019-05-01T07:18:24.146Z,10.22
2019-05-01T07:19:19.848Z,10.24
2019-05-01T07:20:19.798Z,10.19
2019-05-01T07:21:22.882Z,10.30
2019-05-01T07:22:19.811Z,10.32
2019-05-01T07:23:19.736Z,10.34
2019-05-01T07:24:23.998Z,10.28
2019-05-01T07:25:19.695Z,10.40
2019-05-01T07:26:19.652Z,10.34
2019-05-01T07:27:23.621Z,10.32
2019-05-01T07:28:19.602Z,10.30
2019-05-01T07:29:19.646Z,10.33
2019-05-01T07:30:19.804Z,10.30
2019-05-01T07:31:19.518Z,10.36
2019-05-01T07:32:19.489Z,10.28
2019-05-01T07:33:19.576Z,10.21
2019-05-01T07:34:21.679Z,10.21
2019-05-01T07:35:19.486Z,10.26
2019-05-01T07:36:19.387Z,10.30
2019-05-01T07:37:20.740Z,10.32
2019-05-01T07:38:19.349Z,10.28
2019-05-01T07:39:19.409Z,10.42
2019-05-01T07:40:20.765Z,10.37
2019-05-01T07:41:19.340Z,10.40
2019-05-01T07:42:19.233Z,10.42
2019-05-01T07:43:24.034Z,10.43
2019-05-01T07:44:19.177Z,10.46
2019-05-01T07:45:19.248Z,10.47
2019-05-01T07:46:19.601Z,10.47
2019-05-01T07:47:19.098Z,10.51
2019-05-01T07:48:19.066Z,10.59
2019-05-01T07:49:19.179Z,10.58
2019-05-01T07:50:19.034Z,10.58
2019-05-01T07:51:19.087Z,10.63
2019-05-01T07:52:18.967Z,10.68
2019-05-01T07:53:18.936Z,10.71
2019-05-01T07:54:18.917Z,10.62
2019-05-01T07:55:20.108Z,10.77
2019-05-01T07:56:22.835Z,10.70
2019-05-01T07:57:18.840Z,10.70
2019-05-01T07:58:18.809Z,10.74
2019-05-01T07:59:22.779Z,10.60
2019-05-01T08:00:18.748Z,10.63
2019-05-01T08:01:20.174Z,10.60
2019-05-01T08:02:18.697Z,10.56
2019-05-01T08:03:18.767Z,10.58
2019-05-01T08:04:35.261Z,10.68
2019-05-01T08:05:18.628Z,10.70
2019-05-01T08:06:21.762Z,10.63
2019-05-01T08:07:18.570Z,10.63
2019-05-01T08:08:18.701Z,10.56
2019-05-01T08:09:18.599Z,10.60
2019-05-01T08:10:20.956Z,10.68
2019-05-01T08:11:18.618Z,10.74
2019-05-01T08:12:18.852Z,10.86
2019-05-01T08:13:18.526Z,10.89
2019-05-01T08:14:18.667Z,10.95
2019-05-01T08:15:18.359Z,10.92
2019-05-01T08:16:18.448Z,11.06
2019-05-01T08:17:19.819Z,10.95
2019-05-01T08:18:18.457Z,11.03
2019-05-01T08:19:18.262Z,11.07
2019-05-01T08:20:18.226Z,11.14
2019-05-01T08:21:21.268Z,11.10
2019-05-01T08:22:18.177Z,11.07
2019-05-01T08:23:18.291Z,11.07
2019-05-01T08:24:22.785Z,11.02
2019-05-01T08:25:18.099Z,11.07
2019-05-01T08:26:18.078Z,11.07
2019-05-01T08:27:20.213Z,11.10
2019-05-01T08:28:18.018Z,11.06
2019-05-01T08:29:18.137Z,11.13
2019-05-01T08:30:18.726Z,11.14
2019-05-01T08:31:17.954Z,11.21
2019-05-01T08:32:18.045Z,11.32
2019-05-01T08:33:17.898Z,11.35
2019-05-01T08:34:20.733Z,11.38
2019-05-01T08:35:17.837Z,11.52
2019-05-01T08:36:17.820Z,11.39
2019-05-01T08:37:22.409Z,11.38
2019-05-01T08:38:17.759Z,11.50
2019-05-01T08:39:17.898Z,11.52
2019-05-01T08:40:20.540Z,11.47
2019-05-01T08:41:17.808Z,11.47
2019-05-01T08:42:17.656Z,11.39
2019-05-01T08:43:19.372Z,11.50
2019-05-01T08:44:17.610Z,11.44
2019-05-01T08:45:17.726Z,11.35
2019-05-01T08:46:17.788Z,11.41
2019-05-01T08:47:20.775Z,11.32
2019-05-01T08:48:17.512Z,11.44
2019-05-01T08:49:17.658Z,11.44
2019-05-01T08:50:19.876Z,11.49
2019-05-01T08:51:17.567Z,11.46
2019-05-01T08:52:17.402Z,11.52
2019-05-01T08:53:18.143Z,11.57
2019-05-01T08:54:17.356Z,11.56
2019-05-01T08:55:17.498Z,11.57
2019-05-01T08:56:22.006Z,11.47
2019-05-01T08:57:17.411Z,11.47
2019-05-01T08:58:17.273Z,11.50
2019-05-01T08:59:19.433Z,11.56
2019-05-01T09:00:17.217Z,11.62
2019-05-01T09:01:17.342Z,11.62
2019-05-01T09:02:17.149Z,11.64
2019-05-01T09:03:18.702Z,11.77
2019-05-01T09:04:18.813Z,11.80
2019-05-01T09:05:28.264Z,11.75
2019-05-01T09:06:17.047Z,11.74
2019-05-01T09:07:19.149Z,11.86
2019-05-01T09:08:16.998Z,11.97
2019-05-01T09:09:17.191Z,12.02
2019-05-01T09:10:21.145Z,11.96
2019-05-01T09:11:17.109Z,12.04
2019-05-01T09:12:16.906Z,12.04
2019-05-01T09:13:18.944Z,11.94
2019-05-01T09:14:16.873Z,11.82
2019-05-01T09:15:16.821Z,11.96
2019-05-01T09:16:19.169Z,11.80
2019-05-01T09:17:16.767Z,11.70
2019-05-01T09:18:18.897Z,11.72
2019-05-01T09:19:16.721Z,11.75
2019-05-01T09:20:16.906Z,11.74
2019-05-01T09:21:16.680Z,11.75
2019-05-01T09:22:16.775Z,11.72
2019-05-01T09:23:16.627Z,11.86
2019-05-01T09:24:16.686Z,11.93
2019-05-01T09:25:16.569Z,11.90
2019-05-01T09:26:16.589Z,11.93
2019-05-01T09:27:18.737Z,11.97
2019-05-01T09:28:16.611Z,12.01
2019-05-01T09:29:17.833Z,11.99
2019-05-01T09:30:16.436Z,12.09
2019-05-01T09:31:16.408Z,12.12
2019-05-01T09:32:18.704Z,12.21
2019-05-01T09:33:16.369Z,12.21
2019-05-01T09:34:19.259Z,12.27
2019-05-01T09:35:16.714Z,12.27
2019-05-01T09:36:16.288Z,12.33
2019-05-01T09:37:16.268Z,12.39
2019-05-01T09:38:16.369Z,12.54
2019-05-01T09:39:16.216Z,12.52
2019-05-01T09:40:16.283Z,12.51
2019-05-01T09:41:16.290Z,12.46
2019-05-01T09:42:23.187Z,12.49
2019-05-01T09:43:16.201Z,12.56
2019-05-01T09:44:16.087Z,12.52
2019-05-01T09:45:16.124Z,12.62
2019-05-01T09:46:16.037Z,12.67
2019-05-01T09:47:16.129Z,12.63
2019-05-01T09:48:15.987Z,12.49
2019-05-01T09:49:18.215Z,12.48
2019-05-01T09:50:15.945Z,12.56
2019-05-01T09:51:16.055Z,12.63
2019-05-01T09:52:18.994Z,12.57
2019-05-01T09:53:15.962Z,12.70
2019-05-01T09:54:15.838Z,12.81
2019-05-01T09:55:17.970Z,12.75
2019-05-01T09:56:15.787Z,12.70
2019-05-01T09:57:15.768Z,12.70
2019-05-01T09:58:15.738Z,12.71
2019-05-01T09:59:17.487Z,12.67
2019-05-01T10:00:16.865Z,12.74
2019-05-01T10:01:15.707Z,12.67
2019-05-01T10:02:15.647Z,12.62
2019-05-01T10:03:16.924Z,12.62
2019-05-01T10:04:15.642Z,12.56
2019-05-01T10:05:28.229Z,12.67
2019-05-01T10:06:17.196Z,12.63
2019-05-01T10:07:15.554Z,12.69
2019-05-01T10:08:15.496Z,12.52
2019-05-01T10:09:16.897Z,12.49
2019-05-01T10:10:15.475Z,12.46
2019-05-01T10:11:15.420Z,12.39
2019-05-01T10:12:15.478Z,12.45
2019-05-01T10:13:17.667Z,12.41
2019-05-01T10:14:15.351Z,12.44
2019-05-01T10:15:15.401Z,12.54
2019-05-01T10:16:15.302Z,12.59
2019-05-01T10:17:15.317Z,12.57
2019-05-01T10:18:15.239Z,12.62
2019-05-01T10:19:15.218Z,12.59
2019-05-01T10:20:15.199Z,12.63
2019-05-01T10:21:15.249Z,12.64
2019-05-01T10:22:15.161Z,12.51
2019-05-01T10:23:15.163Z,12.46
2019-05-01T10:24:15.163Z,12.45
2019-05-01T10:25:15.078Z,12.45
2019-05-01T10:26:18.986Z,12.44
2019-05-01T10:27:17.108Z,12.67
2019-05-01T10:28:17.712Z,12.69
2019-05-01T10:29:14.978Z,12.74
2019-05-01T10:30:14.950Z,12.78
2019-05-01T10:31:14.999Z,12.82
2019-05-01T10:32:16.891Z,12.82
2019-05-01T10:33:14.924Z,12.88
2019-05-01T10:34:14.858Z,12.77
2019-05-01T10:35:19.205Z,12.78
2019-05-01T10:36:20.421Z,12.74
2019-05-01T10:37:14.775Z,12.69
2019-05-01T10:38:14.847Z,12.78
2019-05-01T10:39:16.079Z,12.85
2019-05-01T10:40:14.698Z,12.89
2019-05-01T10:41:14.677Z,12.99
2019-05-01T10:42:14.679Z,13.12
2019-05-01T10:43:14.629Z,13.15
2019-05-01T10:44:14.700Z,13.15
2019-05-01T10:45:14.580Z,12.99
2019-05-01T10:46:14.556Z,12.99
2019-05-01T10:47:14.613Z,12.93
2019-05-01T10:48:14.519Z,12.93
2019-05-01T10:49:14.521Z,12.88
2019-05-01T10:50:14.456Z,12.89
2019-05-01T10:51:14.436Z,12.92
2019-05-01T10:52:14.676Z,12.84
2019-05-01T10:53:14.394Z,12.87
2019-05-01T10:54:14.447Z,12.89
2019-05-01T10:55:14.341Z,12.96
2019-05-01T10:56:14.359Z,12.93
2019-05-01T10:57:14.288Z,12.99
2019-05-01T10:58:17.954Z,13.12
2019-05-01T10:59:14.237Z,12.99
2019-05-01T11:00:14.286Z,12.97
2019-05-01T11:01:14.186Z,12.87
2019-05-01T11:02:14.169Z,12.95
2019-05-01T11:03:14.138Z,12.97
2019-05-01T11:04:14.233Z,12.97
2019-05-01T11:05:14.101Z,12.96
2019-05-01T11:06:14.126Z,13.03
2019-05-01T11:07:14.042Z,13.06
2019-05-01T11:08:14.039Z,13.32
2019-05-01T11:09:13.988Z,13.36
2019-05-01T11:10:14.048Z,13.33
2019-05-01T11:11:13.949Z,13.43
2019-05-01T11:12:13.960Z,13.49
2019-05-01T11:13:13.898Z,13.55
2019-05-01T11:14:13.975Z,13.70
2019-05-01T11:15:13.847Z,13.71
2019-05-01T11:16:13.887Z,13.71
2019-05-01T11:17:13.797Z,13.81
2019-05-01T11:18:13.778Z,13.80
2019-05-01T11:19:13.747Z,13.76
2019-05-01T11:20:13.818Z,13.59
2019-05-01T11:21:13.699Z,13.46
2019-05-01T11:22:13.728Z,13.59
2019-05-01T11:23:13.657Z,13.55
2019-05-01T11:24:13.638Z,13.52
2019-05-01T11:25:13.648Z,13.44
2019-05-01T11:26:13.579Z,13.47
2019-05-01T11:27:13.656Z,13.56
2019-05-01T11:28:13.529Z,13.61
2019-05-01T11:29:13.508Z,13.69
2019-05-01T11:30:13.499Z,13.84
2019-05-01T11:31:13.486Z,13.95
2019-05-01T11:32:13.442Z,13.95
2019-05-01T11:33:13.512Z,14.02
2019-05-01T11:34:13.388Z,14.04
2019-05-01T11:35:13.408Z,14.14
2019-05-01T11:36:13.339Z,14.28
2019-05-01T11:37:13.439Z,14.35
2019-05-01T11:38:13.288Z,14.54
2019-05-01T11:39:13.352Z,14.65
2019-05-01T11:40:13.249Z,14.68
2019-05-01T11:41:13.353Z,14.67
2019-05-01T11:42:13.200Z,14.81
2019-05-01T11:43:13.267Z,14.87
2019-05-01T11:44:13.158Z,14.87
2019-05-01T11:45:13.127Z,14.87
2019-05-01T11:46:13.108Z,14.86
2019-05-01T11:47:13.196Z,14.90
2019-05-01T11:48:13.057Z,14.80
2019-05-01T11:49:13.108Z,14.67
2019-05-01T11:50:13.019Z,14.54
2019-05-01T11:51:13.010Z,14.44
2019-05-01T11:52:12.961Z,14.37
2019-05-01T11:53:13.028Z,14.27
2019-05-01T11:54:13.002Z,14.19
2019-05-01T11:55:12.937Z,14.10
2019-05-01T11:56:12.870Z,14.17
2019-05-01T11:57:12.947Z,14.24
2019-05-01T11:58:12.817Z,14.49
2019-05-01T11:59:12.857Z,14.57
2019-05-01T12:00:12.778Z,14.84
2019-05-01T12:01:12.751Z,14.91
2019-05-01T12:02:12.779Z,14.98
2019-05-01T12:03:12.707Z,15.05
2019-05-01T12:04:12.687Z,15.23
2019-05-01T12:05:12.656Z,15.23
2019-05-01T12:06:22.676Z,15.43
2019-05-01T12:07:12.618Z,15.38
2019-05-01T12:08:12.630Z,15.46
2019-05-01T12:09:12.566Z,15.41
2019-05-01T12:10:14.377Z,15.51
2019-05-01T12:11:12.601Z,15.68
2019-05-01T12:12:12.545Z,15.82
2019-05-01T12:13:12.482Z,15.94
2019-05-01T12:14:12.558Z,15.96
2019-05-01T12:15:12.427Z,15.99
2019-05-01T12:16:12.575Z,16.11
2019-05-01T12:17:12.388Z,16.35
2019-05-01T12:18:12.378Z,16.35
2019-05-01T12:19:12.338Z,16.50
2019-05-01T12:20:12.389Z,16.62
2019-05-01T12:21:12.290Z,16.85
2019-05-01T12:22:12.257Z,16.96
2019-05-01T12:23:12.249Z,17.04
2019-05-01T12:24:12.311Z,17.32
2019-05-01T12:25:12.205Z,17.36
2019-05-01T12:26:13.357Z,17.26
2019-05-01T12:27:12.169Z,17.29
2019-05-01T12:28:12.247Z,17.40
2019-05-01T12:29:12.116Z,17.54
2019-05-01T12:30:12.158Z,17.69
2019-05-01T12:31:12.147Z,17.82
2019-05-01T12:32:12.179Z,17.92
2019-05-01T12:33:12.028Z,17.89
2019-05-01T12:34:12.089Z,17.87
2019-05-01T12:35:11.976Z,17.99
2019-05-01T12:36:11.997Z,18.09
2019-05-01T12:37:11.939Z,18.10
2019-05-01T12:38:11.929Z,18.21
2019-05-01T12:39:11.915Z,18.21
2019-05-01T12:40:11.868Z,18.10
2019-05-01T12:41:11.936Z,18.09
2019-05-01T12:42:11.825Z,17.85
2019-05-01T12:43:12.374Z,17.79
2019-05-01T12:44:11.788Z,17.95
2019-05-01T12:45:11.856Z,17.81
2019-05-01T12:46:11.747Z,17.85
2019-05-01T12:47:11.776Z,17.97
2019-05-01T12:48:11.709Z,17.99
2019-05-01T12:49:11.787Z,18.02
2019-05-01T12:50:11.781Z,18.10
2019-05-01T12:51:11.701Z,18.04
2019-05-01T12:52:11.644Z,18.10
2019-05-01T12:53:12.639Z,17.88
2019-05-01T12:54:11.565Z,17.85
2019-05-01T12:55:11.625Z,17.76
2019-05-01T12:56:11.580Z,17.81
2019-05-01T12:57:12.658Z,17.82
2019-05-01T12:58:11.484Z,17.84
2019-05-01T12:59:11.464Z,17.88
2019-05-01T13:00:11.459Z,17.92
2019-05-01T13:01:11.466Z,18.12
2019-05-01T13:02:11.403Z,18.07
2019-05-01T13:03:11.476Z,18.10
2019-05-01T13:04:11.387Z,18.10
2019-05-01T13:05:11.398Z,18.02